Time;durP1;ratioP1;P1;durP2;ratioP2;P2;SDS_P1;SDS_P2;PMS_P1;PMS_P2;Temp;Humidity;BMP_temperature;BMP_pressure;BME280_temperature;BME280_humidity;BME280_pressure;Samples;Min_cycle;Max_cycle;Signal;HPM_P1;HPM_P2
2022/08/18 00:02:04;;;;;;;16.75;15.27;;;;;;;;;;5130976;27;20780;-55
2022/08/18 00:04:30;;;;;;;16.50;15.10;;;;;;;;;;5132406;27;20394;-57
2022/08/18 00:06:56;;;;;;;18.38;16.58;;;;;;;;;;5131828;27;20391;-56
2022/08/18 00:09:22;;;;;;;18.35;16.70;;;;;;;;;;5132182;27;20494;-56
2022/08/18 00:11:49;;;;;;;18.83;17.30;;;;;;;;;;5131955;27;20526;-54
2022/08/18 00:14:17;;;;;;;20.95;19.15;;;;;;;;;;5131937;27;20395;-56
2022/08/18 00:16:43;;;;;;;20.47;18.77;;;;;;;;;;5131208;27;20479;-56
2022/08/18 00:19:09;;;;;;;20.60;18.80;;;;;;;;;;5131265;27;20395;-57
2022/08/18 00:21:35;;;;;;;19.40;17.70;;;;;;;;;;5113392;27;20390;-56
2022/08/18 00:24:02;;;;;;;19.50;17.90;;;;;;;;;;5131668;27;20768;-55
2022/08/18 00:26:28;;;;;;;21.23;19.42;;;;;;;;;;5131995;27;20802;-56
2022/08/18 00:28:55;;;;;;;21.65;19.88;;;;;;;;;;5131534;27;20785;-56
2022/08/18 00:31:21;;;;;;;19.05;17.52;;;;;;;;;;5131506;27;20711;-56
2022/08/18 00:33:47;;;;;;;18.52;17.02;;;;;;;;;;5130726;27;20402;-56
2022/08/18 00:36:13;;;;;;;17.75;16.35;;;;;;;;;;5131323;27;20740;-56
2022/08/18 00:38:40;;;;;;;21.73;19.73;;;;;;;;;;5130761;27;20864;-56
2022/08/18 00:41:06;;;;;;;19.90;18.38;;;;;;;;;;5131500;27;20453;-56
2022/08/18 00:43:38;;;;;;;20.47;18.80;;;;;;;;;;5130351;27;20387;-56
2022/08/18 00:46:07;;;;;;;19.70;17.90;;;;;;;;;;5131150;27;20402;-57
2022/08/18 00:48:33;;;;;;;17.42;15.82;;;;;;;;;;5131739;27;20447;-56
2022/08/18 00:51:01;;;;;;;18.02;16.55;;;;;;;;;;5131034;27;20406;-55
2022/08/18 00:53:30;;;;;;;17.25;15.75;;;;;;;;;;5130669;27;20497;-56
2022/08/18 00:55:56;;;;;;;23.25;21.05;;;;;;;;;;5131236;27;20406;-56
2022/08/18 00:58:24;;;;;;;21.83;20.02;;;;;;;;;;5130860;27;20803;-56
2022/08/18 01:00:50;;;;;;;22.25;20.23;;;;;;;;;;5131177;27;20467;-56
2022/08/18 01:03:19;;;;;;;21.38;19.58;;;;;;;;;;5131503;27;20429;-57
2022/08/18 01:05:49;;;;;;;20.83;18.93;;;;;;;;;;5129946;27;20471;-56
2022/08/18 01:08:16;;;;;;;24.23;22.13;;;;;;;;;;5131184;27;20716;-56
2022/08/18 01:10:42;;;;;;;22.27;20.48;;;;;;;;;;5130817;27;20398;-55
2022/08/18 01:13:08;;;;;;;20.83;19.13;;;;;;;;;;5130570;27;20444;-54
2022/08/18 01:15:34;;;;;;;21.38;19.58;;;;;;;;;;5130952;27;20629;-55
2022/08/18 01:23:42;;;;;;;21.75;19.95;;;;;;;;;;5101162;27;20891;-56
2022/08/18 01:26:08;;;;;;;19.73;18.02;;;;;;;;;;5130656;28;20984;-56
2022/08/18 01:28:36;;;;;;;22.02;20.13;;;;;;;;;;5130354;28;20432;-55
2022/08/18 01:31:02;;;;;;;23.27;21.25;;;;;;;;;;5130288;27;20445;-55
2022/08/18 01:33:31;;;;;;;22.90;20.90;;;;;;;;;;5130709;27;20403;-56
2022/08/18 01:35:58;;;;;;;26.17;23.77;;;;;;;;;;5130738;27;20432;-55
2022/08/18 01:38:25;;;;;;;24.73;22.63;;;;;;;;;;5130720;28;20395;-56
2022/08/18 01:40:53;;;;;;;24.48;22.33;;;;;;;;;;5129106;28;20406;-56
2022/08/18 01:43:19;;;;;;;24.03;21.97;;;;;;;;;;5130971;27;20900;-56
2022/08/18 01:45:46;;;;;;;25.40;23.17;;;;;;;;;;5130743;28;20399;-54
2022/08/18 01:48:12;;;;;;;24.20;22.20;;;;;;;;;;5130779;27;20405;-55
2022/08/18 01:50:40;;;;;;;25.08;22.77;;;;;;;;;;5130791;27;20861;-55
2022/08/18 01:53:06;;;;;;;25.55;23.35;;;;;;;;;;5130569;28;20444;-56
2022/08/18 01:55:33;;;;;;;25.48;23.23;;;;;;;;;;5130948;28;20804;-56
2022/08/18 01:58:01;;;;;;;22.65;20.77;;;;;;;;;;5130701;28;20401;-54
2022/08/18 02:00:27;;;;;;;22.15;20.35;;;;;;;;;;5129416;27;20467;-55
2022/08/18 02:02:53;;;;;;;24.58;22.48;;;;;;;;;;5130634;28;20390;-55
2022/08/18 02:05:24;;;;;;;23.65;21.70;;;;;;;;;;5130470;28;20387;-56
2022/08/18 02:07:50;;;;;;;23.08;21.08;;;;;;;;;;5130309;27;20433;-55
2022/08/18 02:10:17;;;;;;;25.60;23.30;;;;;;;;;;5130587;27;20429;-55
2022/08/18 02:12:43;;;;;;;24.45;22.45;;;;;;;;;;5134682;27;20509;-56
2022/08/18 02:15:11;;;;;;;25.05;22.85;;;;;;;;;;5134467;27;20403;-55
2022/08/18 02:17:37;;;;;;;24.88;22.67;;;;;;;;;;5134288;27;20402;-54
2022/08/18 02:20:04;;;;;;;23.65;21.65;;;;;;;;;;5134545;27;20481;-56
2022/08/18 02:22:30;;;;;;;25.30;23.20;;;;;;;;;;5134410;27;20795;-56
2022/08/18 02:24:57;;;;;;;25.50;23.35;;;;;;;;;;5134184;27;20825;-56
2022/08/18 02:27:22;;;;;;;25.63;23.42;;;;;;;;;;5134137;27;20406;-55
2022/08/18 02:29:48;;;;;;;25.80;23.60;;;;;;;;;;5132874;27;20403;-56
2022/08/18 02:32:16;;;;;;;25.00;22.90;;;;;;;;;;5134031;27;20553;-56
2022/08/18 02:34:42;;;;;;;25.10;23.08;;;;;;;;;;5134008;27;20409;-56
2022/08/18 02:37:08;;;;;;;26.30;23.90;;;;;;;;;;5133808;27;20387;-55
2022/08/18 02:39:36;;;;;;;28.93;26.43;;;;;;;;;;5134021;27;20398;-55
2022/08/18 02:42:02;;;;;;;31.92;29.13;;;;;;;;;;5132766;27;20443;-55
2022/08/18 02:44:28;;;;;;;31.02;28.23;;;;;;;;;;5133872;27;20969;-56
2022/08/18 02:46:54;;;;;;;33.20;30.20;;;;;;;;;;5133597;27;20382;-56
2022/08/18 02:49:22;;;;;;;32.63;29.67;;;;;;;;;;5133636;27;20399;-55
2022/08/18 02:51:49;;;;;;;32.75;29.88;;;;;;;;;;5133462;27;20418;-56
2022/08/18 02:54:15;;;;;;;33.70;30.70;;;;;;;;;;5133533;27;20401;-56
2022/08/18 02:56:44;;;;;;;32.60;29.50;;;;;;;;;;5133563;27;20390;-56
2022/08/18 02:59:11;;;;;;;32.42;29.42;;;;;;;;;;5133299;27;20418;-57
2022/08/18 03:01:38;;;;;;;31.27;28.48;;;;;;;;;;5131699;27;20412;-56
2022/08/18 03:04:06;;;;;;;30.95;28.15;;;;;;;;;;5133496;27;20387;-57
2022/08/18 03:06:34;;;;;;;33.05;30.02;;;;;;;;;;5133388;27;20498;-56
2022/08/18 03:09:00;;;;;;;36.10;32.50;;;;;;;;;;5133033;27;20414;-57
2022/08/18 03:11:28;;;;;;;35.75;32.33;;;;;;;;;;5133231;27;20407;-56
2022/08/18 03:13:55;;;;;;;37.42;33.80;;;;;;;;;;5133043;27;20449;-55
2022/08/18 03:16:23;;;;;;;34.95;31.48;;;;;;;;;;5133062;27;20479;-56
2022/08/18 03:18:50;;;;;;;35.80;32.30;;;;;;;;;;5131647;27;20394;-56
2022/08/18 03:21:18;;;;;;;37.05;33.45;;;;;;;;;;5132066;27;20402;-56
2022/08/18 03:23:45;;;;;;;37.90;34.23;;;;;;;;;;5132550;27;20978;-57
2022/08/18 03:26:12;;;;;;;38.25;34.65;;;;;;;;;;5132193;27;20409;-56
2022/08/18 03:28:39;;;;;;;35.70;32.30;;;;;;;;;;5132794;27;20533;-56
2022/08/18 03:31:05;;;;;;;39.30;35.55;;;;;;;;;;5132580;27;20494;-55
2022/08/18 03:33:31;;;;;;;41.20;37.20;;;;;;;;;;5132827;27;20493;-56
2022/08/18 03:36:03;;;;;;;39.03;35.15;;;;;;;;;;5132412;27;20873;-56
2022/08/18 03:38:29;;;;;;;42.57;38.37;;;;;;;;;;5131150;27;20962;-56
2022/08/18 03:40:56;;;;;;;39.00;35.25;;;;;;;;;;5132570;27;20758;-57
2022/08/18 03:43:25;;;;;;;36.87;33.30;;;;;;;;;;5132582;27;20499;-56
2022/08/18 03:45:53;;;;;;;34.03;30.77;;;;;;;;;;5131825;27;20399;-56
2022/08/18 03:48:19;;;;;;;34.88;31.67;;;;;;;;;;5132445;27;20399;-57
2022/08/18 03:50:46;;;;;;;35.78;32.42;;;;;;;;;;5132465;27;20756;-57
2022/08/18 03:53:12;;;;;;;35.25;31.73;;;;;;;;;;5132000;27;20414;-57
2022/08/18 03:55:40;;;;;;;35.20;31.90;;;;;;;;;;5132205;27;20403;-57
2022/08/18 03:58:07;;;;;;;34.17;31.08;;;;;;;;;;5132057;27;20753;-57
2022/08/18 04:00:37;;;;;;;34.47;31.17;;;;;;;;;;5131995;27;20387;-57
2022/08/18 04:03:03;;;;;;;36.55;32.95;;;;;;;;;;5130797;27;20792;-57
2022/08/18 04:05:30;;;;;;;35.25;31.88;;;;;;;;;;5132566;27;20402;-57
2022/08/18 04:07:56;;;;;;;34.97;31.60;;;;;;;;;;5130334;27;20398;-57
2022/08/18 04:10:22;;;;;;;37.30;33.78;;;;;;;;;;5132463;27;20434;-56
2022/08/18 04:12:48;;;;;;;35.15;31.85;;;;;;;;;;5131610;27;20414;-56
2022/08/18 04:15:15;;;;;;;32.72;29.63;;;;;;;;;;5130576;27;20447;-56
2022/08/18 04:17:42;;;;;;;29.00;26.50;;;;;;;;;;5132007;27;20403;-56
2022/08/18 04:20:09;;;;;;;36.00;32.67;;;;;;;;;;5131672;27;20390;-56
2022/08/18 04:22:35;;;;;;;35.53;32.27;;;;;;;;;;5131783;27;20415;-56
2022/08/18 04:25:01;;;;;;;34.55;31.15;;;;;;;;;;5131938;27;20640;-55
2022/08/18 04:27:28;;;;;;;32.85;29.75;;;;;;;;;;5131767;27;20391;-56
2022/08/18 04:29:55;;;;;;;32.80;29.77;;;;;;;;;;5131420;27;20997;-56
2022/08/18 04:32:23;;;;;;;30.27;27.67;;;;;;;;;;5130543;27;20413;-56
2022/08/18 04:34:49;;;;;;;33.92;30.42;;;;;;;;;;5131561;27;20895;-56
2022/08/18 04:37:18;;;;;;;33.05;29.90;;;;;;;;;;5131498;27;20394;-56
2022/08/18 04:39:44;;;;;;;31.40;28.42;;;;;;;;;;5131531;27;20401;-57
2022/08/18 04:42:10;;;;;;;33.47;30.30;;;;;;;;;;5131240;27;20390;-57
2022/08/18 04:44:36;;;;;;;30.13;27.23;;;;;;;;;;5131358;27;20395;-57
2022/08/18 04:47:03;;;;;;;27.58;24.95;;;;;;;;;;5131094;27;20387;-57
2022/08/18 04:49:32;;;;;;;28.15;25.67;;;;;;;;;;5130289;27;20475;-56
2022/08/18 04:54:44;;;;;;;30.67;27.73;;;;;;;;;;5131468;27;20432;-56
2022/08/18 04:57:11;;;;;;;27.13;24.70;;;;;;;;;;5130926;27;20397;-56
2022/08/18 04:59:39;;;;;;;27.05;24.42;;;;;;;;;;5130909;27;20447;-56
2022/08/18 05:02:06;;;;;;;31.13;28.33;;;;;;;;;;5130685;27;20467;-58
2022/08/18 05:04:33;;;;;;;33.88;30.48;;;;;;;;;;5129122;27;20449;-56
2022/08/18 05:07:00;;;;;;;31.17;28.27;;;;;;;;;;5131154;27;20967;-57
2022/08/18 05:09:26;;;;;;;31.85;28.85;;;;;;;;;;5130738;27;20969;-58
2022/08/18 05:11:52;;;;;;;30.88;28.00;;;;;;;;;;5130751;27;20414;-57
2022/08/18 05:14:20;;;;;;;30.50;27.65;;;;;;;;;;5131028;27;20406;-56
2022/08/18 05:16:47;;;;;;;31.83;28.75;;;;;;;;;;5130857;27;20422;-57
2022/08/18 05:19:13;;;;;;;31.48;28.58;;;;;;;;;;5130947;27;20387;-56
2022/08/18 05:21:41;;;;;;;31.17;28.27;;;;;;;;;;5129583;27;20477;-57
2022/08/18 05:24:07;;;;;;;28.85;26.20;;;;;;;;;;5131121;27;20398;-57
2022/08/18 05:26:33;;;;;;;32.35;29.25;;;;;;;;;;5129629;27;20398;-57
2022/08/18 05:28:59;;;;;;;31.50;28.52;;;;;;;;;;5131135;27;20398;-57
2022/08/18 05:31:26;;;;;;;29.45;26.70;;;;;;;;;;5130672;27;20469;-58
2022/08/18 05:33:54;;;;;;;29.30;26.25;;;;;;;;;;5130513;27;20402;-56
2022/08/18 05:36:27;;;;;;;29.35;26.63;;;;;;;;;;5130459;28;20744;-58
2022/08/18 05:38:58;;;;;;;28.27;25.57;;;;;;;;;;5130495;27;21119;-57
2022/08/18 05:41:26;;;;;;;28.30;25.57;;;;;;;;;;5130723;27;20410;-58
2022/08/18 05:43:53;;;;;;;29.40;26.67;;;;;;;;;;5131474;27;20401;-58
2022/08/18 05:46:21;;;;;;;27.88;25.08;;;;;;;;;;5134940;27;20402;-57
2022/08/18 05:48:47;;;;;;;28.15;25.48;;;;;;;;;;5133005;27;20397;-57
2022/08/18 05:51:16;;;;;;;29.60;26.80;;;;;;;;;;5132905;27;20388;-58
2022/08/18 05:56:46;;;;;;;29.80;26.77;;;;;;;;;;5134136;27;20439;-57
2022/08/18 05:59:13;;;;;;;28.97;26.17;;;;;;;;;;5133603;27;20451;-57
2022/08/18 06:01:41;;;;;;;31.70;28.50;;;;;;;;;;5134826;27;20396;-58
2022/08/18 06:04:10;;;;;;;28.13;25.48;;;;;;;;;;5134914;27;20459;-57
2022/08/18 06:06:36;;;;;;;27.15;24.65;;;;;;;;;;5135144;27;20386;-58
2022/08/18 06:09:18;;;;;;;29.63;26.73;;;;;;;;;;5134753;27;20409;-57
2022/08/18 06:11:46;;;;;;;31.48;28.40;;;;;;;;;;5132898;27;20398;-57
2022/08/18 06:14:12;;;;;;;29.40;26.63;;;;;;;;;;5132951;27;20395;-57
2022/08/18 06:16:48;;;;;;;29.20;26.50;;;;;;;;;;5134299;27;20451;-58
2022/08/18 06:19:28;;;;;;;28.73;26.02;;;;;;;;;;5134437;27;20510;-58
2022/08/18 06:22:00;;;;;;;29.13;26.42;;;;;;;;;;5128830;27;20422;-57
2022/08/18 06:24:30;;;;;;;28.05;25.48;;;;;;;;;;5134436;27;20445;-57
2022/08/18 06:27:00;;;;;;;26.57;23.97;;;;;;;;;;5134102;27;20399;-57
2022/08/18 06:29:36;;;;;;;27.70;25.00;;;;;;;;;;5134091;27;20753;-57
2022/08/18 06:32:08;;;;;;;28.30;25.52;;;;;;;;;;5132146;27;20422;-58
2022/08/18 06:34:39;;;;;;;30.10;27.20;;;;;;;;;;5132607;27;20399;-58
2022/08/18 06:37:08;;;;;;;30.70;27.63;;;;;;;;;;5134242;27;20399;-58
2022/08/18 06:39:39;;;;;;;30.02;27.02;;;;;;;;;;5134278;27;20387;-58
2022/08/18 06:42:06;;;;;;;29.60;26.65;;;;;;;;;;5133900;27;20490;-58
2022/08/18 06:44:34;;;;;;;30.08;27.13;;;;;;;;;;5133792;27;20391;-58
2022/08/18 06:47:03;;;;;;;28.33;25.63;;;;;;;;;;5133644;27;20910;-58
2022/08/18 06:49:37;;;;;;;30.45;27.25;;;;;;;;;;5133964;27;20390;-58
2022/08/18 06:52:24;;;;;;;28.42;25.63;;;;;;;;;;5133539;27;20411;-58
2022/08/18 06:54:50;;;;;;;31.33;28.33;;;;;;;;;;5133543;27;20387;-58
2022/08/18 06:57:26;;;;;;;29.02;26.20;;;;;;;;;;5133082;27;20398;-59
2022/08/18 06:59:56;;;;;;;28.92;26.02;;;;;;;;;;5133794;27;20401;-59
2022/08/18 07:02:25;;;;;;;29.00;26.23;;;;;;;;;;5131670;27;20439;-59
2022/08/18 07:04:59;;;;;;;30.92;27.92;;;;;;;;;;5133233;27;20873;-59
2022/08/18 07:07:30;;;;;;;29.83;26.83;;;;;;;;;;5131691;27;20402;-59
2022/08/18 07:09:56;;;;;;;30.65;27.65;;;;;;;;;;5133571;27;20406;-59
2022/08/18 07:12:24;;;;;;;31.60;28.50;;;;;;;;;;5133191;27;20418;-59
2022/08/18 07:14:53;;;;;;;31.10;27.83;;;;;;;;;;5133310;27;20399;-59
2022/08/18 07:17:23;;;;;;;32.10;28.95;;;;;;;;;;5133135;27;20455;-59
2022/08/18 07:20:00;;;;;;;31.60;28.40;;;;;;;;;;5133030;27;20958;-59
2022/08/18 07:22:26;;;;;;;30.40;27.52;;;;;;;;;;5133039;27;20483;-60
2022/08/18 07:24:54;;;;;;;32.38;29.17;;;;;;;;;;5132888;27;20423;-59
2022/08/18 07:27:21;;;;;;;31.40;28.35;;;;;;;;;;5132849;27;20881;-60
2022/08/18 07:30:04;;;;;;;31.02;27.92;;;;;;;;;;5132869;27;20819;-59
2022/08/18 07:32:34;;;;;;;33.13;29.88;;;;;;;;;;5132939;27;20410;-59
2022/08/18 07:35:02;;;;;;;29.73;26.92;;;;;;;;;;5132757;27;20802;-58
2022/08/18 07:37:30;;;;;;;28.40;25.70;;;;;;;;;;5132797;27;20397;-61
2022/08/18 07:39:59;;;;;;;30.43;27.57;;;;;;;;;;5132600;27;20406;-59
2022/08/18 07:42:32;;;;;;;28.70;26.05;;;;;;;;;;5132660;27;20410;-59
2022/08/18 07:45:01;;;;;;;30.05;27.17;;;;;;;;;;5132314;27;20414;-59
2022/08/18 07:47:33;;;;;;;28.17;25.45;;;;;;;;;;5132561;27;20429;-59
2022/08/18 07:50:01;;;;;;;25.95;23.58;;;;;;;;;;5132626;27;20756;-59
2022/08/18 07:52:29;;;;;;;28.80;26.10;;;;;;;;;;5132722;27;20969;-59
2022/08/18 07:54:59;;;;;;;28.00;25.47;;;;;;;;;;5131147;27;20386;-57
2022/08/18 07:57:32;;;;;;;30.13;27.33;;;;;;;;;;5129072;27;20927;-60
2022/08/18 08:00:03;;;;;;;26.30;23.98;;;;;;;;;;5130975;27;20908;-60
2022/08/18 08:02:40;;;;;;;27.73;25.17;;;;;;;;;;5132546;27;20387;-60
2022/08/18 08:05:09;;;;;;;27.48;25.02;;;;;;;;;;5132141;27;20914;-60
2022/08/18 08:07:40;;;;;;;26.83;24.33;;;;;;;;;;5131817;27;20403;-59
2022/08/18 08:10:18;;;;;;;25.10;22.90;;;;;;;;;;5132090;27;20941;-59
2022/08/18 08:12:46;;;;;;;22.92;20.75;;;;;;;;;;5132225;27;20450;-60
2022/08/18 08:15:22;;;;;;;25.17;22.88;;;;;;;;;;5130125;27;20494;-59
2022/08/18 08:17:52;;;;;;;25.52;23.13;;;;;;;;;;5132293;27;20406;-59
2022/08/18 08:20:22;;;;;;;25.25;22.95;;;;;;;;;;5131993;27;20471;-58
2022/08/18 08:22:58;;;;;;;23.67;21.67;;;;;;;;;;5132166;27;20752;-58
2022/08/18 08:25:25;;;;;;;23.83;21.73;;;;;;;;;;5131954;27;20612;-58
2022/08/18 08:27:59;;;;;;;22.25;20.23;;;;;;;;;;5131870;27;20509;-59
2022/08/18 08:30:27;;;;;;;20.50;18.75;;;;;;;;;;5131732;27;20425;-59
2022/08/18 08:33:09;;;;;;;17.10;15.65;;;;;;;;;;5131449;27;20818;-58
2022/08/18 08:35:38;;;;;;;16.33;14.90;;;;;;;;;;5131537;27;20410;-56
2022/08/18 08:38:08;;;;;;;17.48;15.80;;;;;;;;;;5131582;27;20391;-56
2022/08/18 08:40:38;;;;;;;17.05;15.45;;;;;;;;;;5131734;27;20395;-64
2022/08/18 08:43:06;;;;;;;16.48;15.07;;;;;;;;;;5131481;27;20391;-58
2022/08/18 08:45:33;;;;;;;15.55;14.25;;;;;;;;;;5131555;27;20410;-59
2022/08/18 08:48:04;;;;;;;14.38;13.18;;;;;;;;;;5131584;27;20444;-60
2022/08/18 08:50:32;;;;;;;14.75;13.55;;;;;;;;;;5129947;27;20414;-59
2022/08/18 08:53:01;;;;;;;14.70;13.40;;;;;;;;;;5131354;27;20490;-61
2022/08/18 08:55:28;;;;;;;15.13;13.68;;;;;;;;;;5131369;27;20895;-59
2022/08/18 08:57:56;;;;;;;14.82;13.52;;;;;;;;;;5131311;27;20394;-64
2022/08/18 09:00:22;;;;;;;12.93;11.85;;;;;;;;;;5129487;27;20398;-62
2022/08/18 09:02:54;;;;;;;13.50;12.35;;;;;;;;;;5121818;27;20472;-62
2022/08/18 09:05:23;;;;;;;13.10;12.02;;;;;;;;;;5131270;27;20398;-62
2022/08/18 09:08:10;;;;;;;12.40;11.40;;;;;;;;;;5131034;27;20422;-62
2022/08/18 09:10:56;;;;;;;11.57;10.57;;;;;;;;;;5131107;27;20418;-62
2022/08/18 09:13:37;;;;;;;13.03;11.93;;;;;;;;;;5129737;27;20452;-62
2022/08/18 09:16:12;;;;;;;13.43;12.23;;;;;;;;;;5096889;28;20412;-62
2022/08/18 09:18:45;;;;;;;12.40;11.30;;;;;;;;;;5110108;28;20488;-63
2022/08/18 09:21:19;;;;;;;12.25;11.15;;;;;;;;;;5109057;28;20432;-63
2022/08/18 09:23:46;;;;;;;10.75;9.80;;;;;;;;;;5108933;28;20465;-63
2022/08/18 09:26:23;;;;;;;11.20;10.13;;;;;;;;;;5110466;28;20409;-61
2022/08/18 09:28:55;;;;;;;10.75;9.75;;;;;;;;;;5111202;28;20402;-63
2022/08/18 09:31:21;;;;;;;11.27;10.37;;;;;;;;;;5109476;28;20858;-61
2022/08/18 09:34:08;;;;;;;11.93;10.93;;;;;;;;;;5109326;28;20416;-61
2022/08/18 09:36:44;;;;;;;11.90;10.80;;;;;;;;;;5105503;28;20766;-64
2022/08/18 09:42:07;;;;;;;11.85;10.85;;;;;;;;;;5110533;28;20893;-63
2022/08/18 09:44:52;;;;;;;12.95;11.80;;;;;;;;;;5110539;28;20436;-63
2022/08/18 09:47:33;;;;;;;13.35;12.15;;;;;;;;;;5110909;28;20456;-62
2022/08/18 09:50:19;;;;;;;13.38;12.18;;;;;;;;;;5109913;28;20403;-63
2022/08/18 09:52:47;;;;;;;11.45;10.45;;;;;;;;;;5110101;28;20463;-62
2022/08/18 09:55:28;;;;;;;11.70;10.60;;;;;;;;;;5110305;28;20902;-63
2022/08/18 09:58:09;;;;;;;12.07;10.98;;;;;;;;;;5109525;28;20905;-63
2022/08/18 10:00:35;;;;;;;12.35;11.20;;;;;;;;;;5110329;28;20396;-63
2022/08/18 10:03:04;;;;;;;10.93;9.93;;;;;;;;;;5110209;28;21148;-63
2022/08/18 10:05:30;;;;;;;9.95;8.95;;;;;;;;;;5108641;28;20874;-63
2022/08/18 10:08:18;;;;;;;11.40;10.43;;;;;;;;;;5110472;28;20932;-62
2022/08/18 10:10:48;;;;;;;12.60;11.40;;;;;;;;;;5110349;28;20894;-64
2022/08/18 10:13:19;;;;;;;12.52;11.43;;;;;;;;;;5108963;28;20973;-62
2022/08/18 10:15:49;;;;;;;11.13;10.23;;;;;;;;;;5110400;28;20793;-65
2022/08/18 10:18:30;;;;;;;11.88;10.77;;;;;;;;;;5110159;28;20878;-64
2022/08/18 10:20:59;;;;;;;12.45;11.25;;;;;;;;;;5107531;28;20965;-62
2022/08/18 10:23:43;;;;;;;12.30;11.20;;;;;;;;;;5109977;28;20896;-61
2022/08/18 10:26:42;;;;;;;11.75;10.73;;;;;;;;;;5110016;28;20495;-62
2022/08/18 10:29:10;;;;;;;11.07;10.07;;;;;;;;;;5110155;28;20393;-62
2022/08/18 10:31:51;;;;;;;10.13;9.33;;;;;;;;;;5111831;28;20388;-62
2022/08/18 10:34:35;;;;;;;10.90;10.00;;;;;;;;;;5112925;28;20396;-64
2022/08/18 10:37:02;;;;;;;11.38;9.55;;;;;;;;;;5113662;28;20792;-62
2022/08/18 10:39:41;;;;;;;10.07;9.07;;;;;;;;;;5113520;28;20404;-63
2022/08/18 10:42:14;;;;;;;9.73;8.88;;;;;;;;;;5113435;28;20397;-63
2022/08/18 10:44:42;;;;;;;9.43;8.63;;;;;;;;;;5113467;28;20491;-65
2022/08/18 10:47:08;;;;;;;11.32;10.30;;;;;;;;;;5111980;28;20388;-65
2022/08/18 10:49:36;;;;;;;9.68;8.77;;;;;;;;;;5113434;28;20444;-65
2022/08/18 10:52:23;;;;;;;10.70;9.70;;;;;;;;;;5112946;28;20404;-64
2022/08/18 10:54:57;;;;;;;10.02;9.02;;;;;;;;;;5113626;28;20408;-65
2022/08/18 10:57:29;;;;;;;9.35;8.45;;;;;;;;;;5113483;28;20453;-65
2022/08/18 10:59:59;;;;;;;8.95;8.15;;;;;;;;;;5113358;28;20434;-65
2022/08/18 11:02:40;;;;;;;8.43;7.73;;;;;;;;;;5113223;28;20435;-68
2022/08/18 11:05:09;;;;;;;7.95;7.15;;;;;;;;;;5113242;28;20412;-67
2022/08/18 11:07:37;;;;;;;7.50;6.78;;;;;;;;;;5113208;28;20476;-64
2022/08/18 11:10:15;;;;;;;6.70;6.05;;;;;;;;;;5113281;28;20442;-64
2022/08/18 11:12:58;;;;;;;7.50;6.75;;;;;;;;;;5113245;28;20408;-64
2022/08/18 11:15:28;;;;;;;7.30;6.05;;;;;;;;;;5111058;28;20751;-63
2022/08/18 11:18:00;;;;;;;7.82;7.05;;;;;;;;;;5112946;28;20392;-64
2022/08/18 11:20:29;;;;;;;6.72;5.80;;;;;;;;;;5112775;27;20481;-68
2022/08/18 11:22:57;;;;;;;6.43;5.83;;;;;;;;;;5131335;27;20884;-69
2022/08/18 11:25:25;;;;;;;5.90;5.30;;;;;;;;;;5132079;27;20490;-68
2022/08/18 11:27:53;;;;;;;6.55;5.80;;;;;;;;;;5133109;27;20398;-68
2022/08/18 11:30:19;;;;;;;6.97;5.10;;;;;;;;;;5131833;27;20391;-68
2022/08/18 11:32:46;;;;;;;5.20;4.70;;;;;;;;;;5132725;27;20467;-68
2022/08/18 11:35:13;;;;;;;6.80;5.20;;;;;;;;;;5132885;27;20394;-67
2022/08/18 11:37:43;;;;;;;5.13;4.63;;;;;;;;;;5132768;27;20454;-68
2022/08/18 11:40:10;;;;;;;5.60;4.97;;;;;;;;;;5132480;27;20413;-68
2022/08/18 11:42:38;;;;;;;6.90;4.95;;;;;;;;;;5130837;27;20477;-68
2022/08/18 11:45:11;;;;;;;6.32;4.53;;;;;;;;;;5132283;27;20418;-67
2022/08/18 11:47:38;;;;;;;5.30;4.80;;;;;;;;;;5131908;27;20399;-68
2022/08/18 11:50:08;;;;;;;6.03;5.25;;;;;;;;;;5132250;27;20477;-69
2022/08/18 11:52:45;;;;;;;5.53;5.00;;;;;;;;;;5132234;27;20411;-69
2022/08/18 11:55:18;;;;;;;6.78;5.32;;;;;;;;;;5132500;27;20409;-69
2022/08/18 11:57:53;;;;;;;6.93;5.30;;;;;;;;;;5132339;27;20394;-67
2022/08/18 12:00:41;;;;;;;5.97;5.07;;;;;;;;;;5132254;27;20397;-70
2022/08/18 12:03:09;;;;;;;7.17;4.80;;;;;;;;;;5131329;27;20379;-66
2022/08/18 12:05:42;;;;;;;7.25;4.72;;;;;;;;;;5131300;27;20459;-68
2022/08/18 12:08:16;;;;;;;5.70;4.60;;;;;;;;;;5131810;27;20422;-67
2022/08/18 12:10:41;;;;;;;6.10;4.75;;;;;;;;;;5130260;27;20403;-65
2022/08/18 12:13:07;;;;;;;5.75;4.72;;;;;;;;;;5132064;27;20419;-65
2022/08/18 12:15:35;;;;;;;6.78;4.63;;;;;;;;;;5128965;27;20406;-64
2022/08/18 12:18:02;;;;;;;6.00;4.68;;;;;;;;;;5132568;27;20436;-65
2022/08/18 12:20:28;;;;;;;4.35;3.85;;;;;;;;;;5132397;27;20390;-65
2022/08/18 12:22:55;;;;;;;6.17;4.63;;;;;;;;;;5130525;27;20532;-66
2022/08/18 12:25:21;;;;;;;5.75;4.30;;;;;;;;;;5131340;27;20394;-66
2022/08/18 12:27:47;;;;;;;5.70;5.10;;;;;;;;;;5131898;27;20395;-66
2022/08/18 12:30:13;;;;;;;4.63;4.13;;;;;;;;;;5133085;27;20204;-65
2022/08/18 12:32:39;;;;;;;5.20;4.70;;;;;;;;;;5132197;27;20220;-65
2022/08/18 12:35:10;;;;;;;3.97;3.60;;;;;;;;;;5133081;27;20207;-64
2022/08/18 12:37:37;;;;;;;5.35;4.07;;;;;;;;;;5130407;27;20422;-66
2022/08/18 12:40:03;;;;;;;6.23;4.63;;;;;;;;;;5132864;27;20668;-63
2022/08/18 12:42:29;;;;;;;5.07;4.63;;;;;;;;;;5133214;27;20196;-65
2022/08/18 12:44:55;;;;;;;5.50;4.20;;;;;;;;;;5132831;27;20564;-64
2022/08/18 12:47:23;;;;;;;7.67;4.47;;;;;;;;;;5131569;27;20406;-64
2022/08/18 12:49:49;;;;;;;5.80;4.80;;;;;;;;;;5130412;27;20398;-65
2022/08/18 12:52:16;;;;;;;6.47;4.18;;;;;;;;;;5132155;27;20424;-65
2022/08/18 12:54:45;;;;;;;5.00;4.18;;;;;;;;;;5131374;27;20402;-65
2022/08/18 12:57:14;;;;;;;5.65;4.65;;;;;;;;;;5130047;27;20940;-65
2022/08/18 12:59:40;;;;;;;5.13;3.90;;;;;;;;;;5131278;27;20405;-65
2022/08/18 13:02:08;;;;;;;6.43;3.60;;;;;;;;;;5129741;27;20757;-67
2022/08/18 13:04:34;;;;;;;4.78;3.63;;;;;;;;;;5131134;27;20404;-63
2022/08/18 13:07:00;;;;;;;5.20;3.90;;;;;;;;;;5129650;27;20398;-64
2022/08/18 13:09:29;;;;;;;4.30;3.80;;;;;;;;;;5131331;27;20406;-64
2022/08/18 13:11:55;;;;;;;7.43;4.18;;;;;;;;;;5131277;27;20410;-66
2022/08/18 13:14:21;;;;;;;4.82;4.32;;;;;;;;;;5131047;27;20410;-67
2022/08/18 13:16:47;;;;;;;5.63;3.85;;;;;;;;;;5129715;27;20912;-60
2022/08/18 13:19:14;;;;;;;5.00;3.60;;;;;;;;;;5129639;27;20401;-60
2022/08/18 13:21:42;;;;;;;5.53;3.70;;;;;;;;;;5131546;27;20394;-60
2022/08/18 13:24:08;;;;;;;4.10;3.70;;;;;;;;;;5128126;27;20387;-60
2022/08/18 13:26:37;;;;;;;4.10;3.28;;;;;;;;;;5131211;27;20391;-60
2022/08/18 13:29:03;;;;;;;5.85;3.80;;;;;;;;;;5129473;28;20467;-60
2022/08/18 13:31:30;;;;;;;4.25;3.60;;;;;;;;;;5130898;27;20390;-60
2022/08/18 13:33:56;;;;;;;4.95;3.45;;;;;;;;;;5130688;28;20402;-60
2022/08/18 13:36:22;;;;;;;5.03;3.85;;;;;;;;;;5130324;28;20387;-60
2022/08/18 13:38:51;;;;;;;4.53;3.20;;;;;;;;;;5129838;28;20402;-60
2022/08/18 13:41:17;;;;;;;4.97;3.30;;;;;;;;;;5131222;27;20477;-60
2022/08/18 13:43:45;;;;;;;5.28;3.25;;;;;;;;;;5129001;28;20422;-61
2022/08/18 13:46:13;;;;;;;5.53;3.38;;;;;;;;;;5130621;27;20896;-60
2022/08/18 13:48:39;;;;;;;4.47;3.00;;;;;;;;;;5130981;28;20468;-60
2022/08/18 13:51:06;;;;;;;4.60;3.37;;;;;;;;;;5130652;27;20390;-61
2022/08/18 13:53:33;;;;;;;5.32;3.35;;;;;;;;;;5130304;27;20973;-59
2022/08/18 13:55:59;;;;;;;4.05;3.00;;;;;;;;;;5130480;28;20410;-59
2022/08/18 13:58:26;;;;;;;4.18;3.25;;;;;;;;;;5126956;27;20399;-61
2022/08/18 14:00:55;;;;;;;5.00;3.10;;;;;;;;;;5131053;28;20552;-61
2022/08/18 14:03:23;;;;;;;5.33;3.30;;;;;;;;;;5128897;27;20425;-61
2022/08/18 14:05:49;;;;;;;6.03;3.42;;;;;;;;;;5132777;27;21160;-59
2022/08/18 14:08:15;;;;;;;4.15;3.22;;;;;;;;;;5133933;27;20402;-59
2022/08/18 14:10:41;;;;;;;4.93;3.35;;;;;;;;;;5134737;27;20885;-60
2022/08/18 14:13:07;;;;;;;5.43;3.20;;;;;;;;;;5134497;27;20418;-60
2022/08/18 14:15:36;;;;;;;6.55;3.30;;;;;;;;;;5133253;27;20813;-60
2022/08/18 14:18:04;;;;;;;4.93;3.45;;;;;;;;;;5134571;27;20391;-62
2022/08/18 14:28:44;;;;;;;4.47;3.20;;;;;;;;;;5134472;27;20387;-59
2022/08/18 14:31:10;;;;;;;4.05;3.25;;;;;;;;;;5134057;27;20394;-60
2022/08/18 14:33:38;;;;;;;5.77;3.30;;;;;;;;;;5133941;27;20411;-62
2022/08/18 14:36:04;;;;;;;4.00;3.00;;;;;;;;;;5133787;27;20447;-60
2022/08/18 14:38:31;;;;;;;4.25;3.03;;;;;;;;;;5134024;27;20387;-61
2022/08/18 14:40:58;;;;;;;3.80;3.10;;;;;;;;;;5133469;27;20415;-61
2022/08/18 14:43:24;;;;;;;3.85;3.20;;;;;;;;;;5132803;27;20620;-61
2022/08/18 14:45:52;;;;;;;4.47;3.40;;;;;;;;;;5133742;27;20395;-60
2022/08/18 14:48:21;;;;;;;6.50;3.28;;;;;;;;;;5133648;27;20770;-59
2022/08/18 14:50:49;;;;;;;3.35;3.00;;;;;;;;;;5132794;27;20390;-61
2022/08/18 14:53:15;;;;;;;4.22;3.20;;;;;;;;;;5133676;27;20407;-60
2022/08/18 14:55:42;;;;;;;5.47;3.30;;;;;;;;;;5134492;27;20468;-60
2022/08/18 14:58:08;;;;;;;5.50;2.97;;;;;;;;;;5131926;27;20935;-62